#dbistima — V2PX5 — position and weather

sailwx.info

Track history (hours):
 
Tides and Currents Weather Stations Pressure Air Temp Water Temp Dewpoint Dewpoint Depression Visibility Wind Speed Wind Dir Waves Ship Positions

#dbistima

Last reported at 2015-Jul-27 19:13 UTC. Time now 2015-Jul-28 01:29 UTC.
Position N 48°05' W 005°10'.

MMSI: 304010972.

Date/timePositionNaut miles runAvg speedWind from/ knotsBaromVisibWave heightAir tempDewpointWater temp
2015-Jul-27 19:13N 48°05' W 005°10'12 4.5
2015-Jul-27 16:32N 48°06' W 004°52'4 3.9
2015-Jul-27 15:34N 48°07' W 004°46'3 3.3
2015-Jul-27 14:33N 48°07' W 004°41'3 3.3
2015-Jul-27 13:33N 48°07' W 004°36'4 3.5
2015-Jul-27 12:33N 48°09' W 004°32'3 3.3
2015-Jul-27 11:32N 48°12' W 004°29'0 0.0
2015-Jul-27 10:32N 48°12' W 004°29'0 0.0
2015-Jul-27 09:32N 48°12' W 004°29'0 0.0
2015-Jul-27 08:32N 48°12' W 004°29'0 0.0
2015-Jul-27 07:32N 48°12' W 004°29'0 0.0
2015-Jul-27 06:32N 48°12' W 004°29'0 0.0
2015-Jul-27 05:32N 48°12' W 004°29'0 0.0
2015-Jul-27 04:32N 48°12' W 004°29'0 0.0
2015-Jul-27 03:32N 48°12' W 004°29'0 0.0
2015-Jul-27 02:32N 48°12' W 004°29'0 0.0
2015-Jul-27 01:32N 48°12' W 004°29'0 0.0
2015-Jul-27 00:32N 48°12' W 004°29'0 0.0
2015-Jul-26 23:32N 48°12' W 004°29'0 0.0
2015-Jul-26 22:32N 48°12' W 004°29'0 0.0
2015-Jul-26 21:32N 48°12' W 004°29'0 0.0
2015-Jul-26 20:32N 48°12' W 004°29'0 0.0
2015-Jul-26 19:32N 48°12' W 004°29'0 0.0
2015-Jul-26 18:32N 48°12' W 004°29'0 0.0
2015-Jul-26 17:32N 48°12' W 004°29'0 0.0
2015-Jul-26 16:32N 48°12' W 004°29'0 0.0
2015-Jul-26 15:32N 48°12' W 004°29'0 0.0
2015-Jul-26 14:32N 48°12' W 004°29'0 0.0
2015-Jul-26 13:32N 48°12' W 004°29'0 0.0
2015-Jul-26 12:32N 48°12' W 004°29'0 0.0
2015-Jul-26 11:32N 48°12' W 004°29'0 0.0
2015-Jul-26 10:29N 48°12' W 004°29'0 0.0
2015-Jul-26 09:32N 48°12' W 004°29'0 0.0
2015-Jul-26 08:08N 48°12' W 004°29'0 0.0
2015-Jul-26 07:32N 48°12' W 004°29'0 0.0
2015-Jul-26 06:29N 48°12' W 004°29'0 0.1
2015-Jul-26 05:32N 48°12' W 004°29'0 0.0
2015-Jul-26 04:32N 48°12' W 004°29'0 0.0
2015-Jul-26 03:32N 48°12' W 004°29'0 0.0
2015-Jul-26 02:32N 48°12' W 004°29'0 0.0
2015-Jul-26 01:32N 48°12' W 004°29'0 0.0
2015-Jul-26 00:32N 48°12' W 004°29'0 0.0
2015-Jul-25 23:29N 48°12' W 004°29'0 0.0
2015-Jul-25 22:32N 48°12' W 004°29'0 0.0
2015-Jul-25 21:29N 48°12' W 004°29'0 0.0
2015-Jul-25 20:32N 48°12' W 004°29'0 0.0
2015-Jul-25 19:26N 48°12' W 004°29'0 0.0
2015-Jul-25 18:26N 48°12' W 004°29'0 0.0
2015-Jul-25 17:29N 48°12' W 004°29'0 0.0
2015-Jul-25 16:32N 48°12' W 004°29'0 0.0
2015-Jul-25 15:32N 48°12' W 004°29'0 0.0
2015-Jul-25 14:32N 48°12' W 004°29'0 0.0
2015-Jul-25 13:32N 48°12' W 004°29'0 0.0
2015-Jul-25 12:32N 48°12' W 004°29'0 0.0
2015-Jul-25 11:32N 48°12' W 004°29'0 0.0
2015-Jul-25 10:32N 48°12' W 004°29'0 0.0
2015-Jul-25 09:32N 48°12' W 004°29'0 0.0
2015-Jul-25 08:32N 48°12' W 004°29'0 0.0
2015-Jul-25 07:32N 48°12' W 004°29'0 0.0
2015-Jul-25 06:32N 48°12' W 004°29'0 0.0
2015-Jul-25 05:32N 48°12' W 004°29'0 0.0
2015-Jul-25 04:32N 48°12' W 004°29'0 0.0
2015-Jul-25 03:32N 48°12' W 004°29'0 0.0
2015-Jul-25 02:32N 48°12' W 004°29'0 0.0
2015-Jul-25 01:32N 48°12' W 004°29'0 0.0
2015-Jul-25 00:32N 48°12' W 004°29'0 0.0
2015-Jul-24 23:32N 48°12' W 004°29'0 0.0
2015-Jul-24 22:32N 48°12' W 004°29'0 0.0
2015-Jul-24 21:32N 48°12' W 004°29'0 0.0
2015-Jul-24 20:32N 48°12' W 004°29'0 0.0
2015-Jul-24 19:32N 48°12' W 004°29'0 0.0
2015-Jul-24 18:34N 48°12' W 004°29'0 0.0
2015-Jul-24 17:33N 48°12' W 004°29'8 7.8
2015-Jul-24 16:33N 48°07' W 004°20'0 0.5
2015-Jul-24 15:32N 48°07' W 004°20'0 0.1
2015-Jul-24 14:32N 48°07' W 004°20'0 0.0
2015-Jul-24 13:32N 48°07' W 004°20'0 0.0
2015-Jul-24 12:32N 48°07' W 004°20'0 0.0
2015-Jul-24 11:29N 48°07' W 004°20'0 0.0
2015-Jul-24 10:32N 48°07' W 004°20'0 0.0
2015-Jul-24 09:11N 48°07' W 004°20'0 0.0
2015-Jul-24 08:26N 48°07' W 004°20'0 0.0
2015-Jul-24 07:29N 48°07' W 004°20'0 0.0
2015-Jul-24 06:26N 48°07' W 004°20'0 0.0
2015-Jul-24 05:20N 48°07' W 004°20'0 0.0
2015-Jul-24 04:14N 48°07' W 004°20'0 0.0
2015-Jul-24 03:26N 48°07' W 004°20'0 0.0
2015-Jul-24 02:29N 48°07' W 004°20'0 0.0
2015-Jul-24 00:14N 48°07' W 004°20'0 0.1
2015-Jul-23 23:29N 48°07' W 004°20'0 0.0
2015-Jul-23 22:32N 48°07' W 004°20'0 0.0
2015-Jul-23 21:32N 48°07' W 004°20'0 0.1
2015-Jul-23 20:32N 48°07' W 004°20'0 0.0
2015-Jul-23 19:32N 48°07' W 004°20'0 0.0
2015-Jul-23 18:32N 48°07' W 004°20'0 0.0
2015-Jul-23 17:05N 48°07' W 004°20'0 0.0
2015-Jul-23 16:32N 48°07' W 004°20'0 0.0
2015-Jul-23 15:32N 48°07' W 004°20'0 0.0
2015-Jul-23 14:32N 48°07' W 004°20'0 0.0
2015-Jul-23 13:32N 48°07' W 004°20'0 0.1
2015-Jul-23 12:32N 48°07' W 004°20'0 0.0
2015-Jul-23 11:32N 48°07' W 004°20'0 0.0
2015-Jul-23 10:11N 48°07' W 004°20'0 0.1
2015-Jul-23 09:32N 48°07' W 004°20'0 0.0
2015-Jul-23 08:32N 48°07' W 004°20'0 0.0
2015-Jul-23 07:23N 48°07' W 004°20'0 0.0
2015-Jul-23 06:17N 48°07' W 004°20'0 0.0
2015-Jul-23 05:32N 48°07' W 004°20'0 0.0
2015-Jul-23 04:32N 48°07' W 004°20'0 0.0
2015-Jul-23 03:32N 48°07' W 004°20'0 0.0
2015-Jul-23 02:32N 48°07' W 004°20'0 0.0
2015-Jul-23 01:32N 48°07' W 004°20'0 0.0
2015-Jul-23 00:32N 48°07' W 004°20'0 0.0
2015-Jul-22 23:29N 48°07' W 004°20'0 0.0
2015-Jul-22 22:32N 48°07' W 004°20'0 0.0
2015-Jul-22 21:32N 48°07' W 004°20'0 0.0
2015-Jul-22 20:32N 48°07' W 004°20'0 0.0
2015-Jul-22 19:32N 48°07' W 004°20'0 0.0
2015-Jul-22 18:32N 48°07' W 004°20'0 0.0
2015-Jul-22 17:32N 48°07' W 004°20'0 0.0
2015-Jul-22 16:32N 48°07' W 004°20'0 0.0
2015-Jul-22 15:32N 48°07' W 004°20'0 0.0
2015-Jul-22 14:32N 48°07' W 004°20'0 0.0
2015-Jul-22 13:32N 48°07' W 004°20'0 0.0
2015-Jul-22 12:32N 48°07' W 004°20'0 0.0
2015-Jul-22 11:32N 48°07' W 004°20'0 0.0
2015-Jul-22 10:32N 48°07' W 004°20'0 0.0
2015-Jul-22 09:29N 48°07' W 004°20'0 0.0
2015-Jul-22 08:29N 48°07' W 004°20'0 0.0
2015-Jul-22 07:29N 48°07' W 004°20'0 0.0
2015-Jul-22 06:29N 48°07' W 004°20'0 0.0
2015-Jul-22 05:29N 48°07' W 004°20'0 0.0
2015-Jul-22 04:32N 48°07' W 004°20'0 0.0
2015-Jul-22 03:32N 48°07' W 004°20'0 0.0
2015-Jul-22 02:32N 48°07' W 004°20'0 0.0
2015-Jul-22 01:33N 48°07' W 004°20'0 0.0
2015-Jul-22 00:33N 48°07' W 004°20'0 0.0
2015-Jul-21 23:33N 48°07' W 004°20'0 0.0
2015-Jul-21 22:33N 48°07' W 004°20'0 0.0
2015-Jul-21 21:33N 48°07' W 004°20'0 0.0
2015-Jul-21 20:33N 48°07' W 004°20'8 7.9
2015-Jul-21 19:32N 48°08' W 004°32'1010.2
2015-Jul-21 18:33N 48°12' W 004°45'6 5.7
2015-Jul-21 17:33N 48°18' W 004°44'9 9.3
2015-Jul-21 16:33N 48°21' W 004°31'3 2.8
2015-Jul-21 15:33N 48°23' W 004°28'0 0.0
2015-Jul-21 14:33N 48°23' W 004°28'0 0.0
2015-Jul-21 13:33N 48°23' W 004°28'0 0.0
2015-Jul-21 12:33N 48°23' W 004°28'0 0.0
2015-Jul-21 11:33N 48°23' W 004°28'0 0.0
2015-Jul-21 10:33N 48°23' W 004°28'0 0.0
2015-Jul-21 09:33N 48°23' W 004°28'0 0.0
2015-Jul-21 08:33N 48°23' W 004°28'0 0.0
2015-Jul-21 07:33N 48°23' W 004°28'0 0.0
2015-Jul-21 06:33N 48°23' W 004°28'0 0.0
2015-Jul-21 05:33N 48°23' W 004°28'0 0.0
2015-Jul-21 04:33N 48°23' W 004°28'0 0.0
2015-Jul-21 03:33N 48°23' W 004°28'0 0.0
2015-Jul-21 02:33N 48°23' W 004°28'0 0.0
2015-Jul-21 01:33N 48°23' W 004°28'0 0.0
2015-Jul-21 00:33N 48°23' W 004°28'0 0.0
2015-Jul-20 23:33N 48°23' W 004°28'0 0.0
2015-Jul-20 22:33N 48°23' W 004°28'0 0.0
2015-Jul-20 21:33N 48°23' W 004°28'0 0.0
2015-Jul-20 20:33N 48°23' W 004°28'0 0.0
2015-Jul-20 19:33N 48°23' W 004°28'0 0.0
2015-Jul-20 18:33N 48°23' W 004°28'0 0.0
2015-Jul-20 17:33N 48°23' W 004°28'0 0.2
2015-Jul-20 16:33N 48°23' W 004°28'7 7.2
2015-Jul-20 15:33N 48°19' W 004°38'9 8.8
2015-Jul-20 14:33N 48°17' W 004°50'4 3.7
2015-Jul-20 13:33N 48°16' W 004°56'6 6.0
2015-Jul-20 12:33N 48°14' W 005°05'121 7.1
2015-Jul-19 19:33N 49°51' W 003°13'8 8.1
2015-Jul-19 18:33N 49°57' W 003°04'11 9.1
2015-Jul-19 17:21N 50°02' W 002°49'3512.3
2015-Jul-19 14:30N 50°11' W 001°56'89 9.0
2015-Jul-19 04:33N 50°36' E 000°19'36 9.1
2015-Jul-19 00:32N 50°54' E 001°08'8 8.1
2015-Jul-18 23:33N 50°59' E 001°18'10 9.8
2015-Jul-18 22:33N 51°06' E 001°30'1211.9
2015-Jul-18 21:33N 51°13' E 001°44'1211.7
2015-Jul-18 20:33N 51°24' E 001°52'1010.2
2015-Jul-18 19:33N 51°32' E 002°02'10 9.6
2015-Jul-18 18:33N 51°39' E 002°12'9 9.0
2015-Jul-18 17:33N 51°46' E 002°22'8 8.3
2015-Jul-18 16:33N 51°52' E 002°31'8 7.9
2015-Jul-18 15:33N 51°58' E 002°40'8 7.9
2015-Jul-18 14:33N 52°04' E 002°48'29 9.5
2015-Jul-18 11:29N 52°04' E 003°36'910.3
2015-Jul-18 10:33N 52°03' E 003°51'10 9.6
2015-Jul-18 09:33N 51°59' E 004°05'10 9.6
2015-Jul-18 08:33N 51°53' E 004°18'1 0.8
2015-Jul-18 07:31N 51°53' E 004°16'0 0.0
2015-Jul-18 06:31N 51°53' E 004°16'0 0.0
2015-Jul-18 05:31N 51°53' E 004°16'0 0.0
2015-Jul-18 04:28N 51°53' E 004°16'0 0.0
2015-Jul-18 03:31N 51°53' E 004°16'0 0.0
2015-Jul-18 02:31N 51°53' E 004°16'0 0.0
2015-Jul-18 01:31N 51°53' E 004°16'0 0.0
2015-Jul-18 00:31N 51°53' E 004°16'0 0.0
2015-Jul-17 23:22N 51°53' E 004°16'0 0.0
2015-Jul-17 22:31N 51°53' E 004°16'0 0.0
2015-Jul-17 21:31N 51°53' E 004°16'0 0.0
2015-Jul-17 20:31N 51°53' E 004°16'0 0.0
2015-Jul-17 19:28N 51°53' E 004°16'  
Track history (hours):
 
Tides and Currents Weather Stations Pressure Air Temp Water Temp Dewpoint Dewpoint Depression Visibility Wind Speed Wind Dir Waves Ship Positions

#dbistima

Last reported at 2015-Jul-27 19:13 UTC. Time now 2015-Jul-28 01:29 UTC.
Position N 48°05' W 005°10'.

MMSI: 304010972.

Date/timePositionNaut miles runAvg speedWind from/ knotsBaromVisibWave heightAir tempDewpointWater temp
2015-Jul-27 19:13N 48°05' W 005°10'12 4.5
2015-Jul-27 16:32N 48°06' W 004°52'4 3.9
2015-Jul-27 15:34N 48°07' W 004°46'3 3.3
2015-Jul-27 14:33N 48°07' W 004°41'3 3.3
2015-Jul-27 13:33N 48°07' W 004°36'4 3.5
2015-Jul-27 12:33N 48°09' W 004°32'3 3.3
2015-Jul-27 11:32N 48°12' W 004°29'0 0.0
2015-Jul-27 10:32N 48°12' W 004°29'0 0.0
2015-Jul-27 09:32N 48°12' W 004°29'0 0.0
2015-Jul-27 08:32N 48°12' W 004°29'0 0.0
2015-Jul-27 07:32N 48°12' W 004°29'0 0.0
2015-Jul-27 06:32N 48°12' W 004°29'0 0.0
2015-Jul-27 05:32N 48°12' W 004°29'0 0.0
2015-Jul-27 04:32N 48°12' W 004°29'0 0.0
2015-Jul-27 03:32N 48°12' W 004°29'0 0.0
2015-Jul-27 02:32N 48°12' W 004°29'0 0.0
2015-Jul-27 01:32N 48°12' W 004°29'0 0.0
2015-Jul-27 00:32N 48°12' W 004°29'0 0.0
2015-Jul-26 23:32N 48°12' W 004°29'0 0.0
2015-Jul-26 22:32N 48°12' W 004°29'0 0.0
2015-Jul-26 21:32N 48°12' W 004°29'0 0.0
2015-Jul-26 20:32N 48°12' W 004°29'0 0.0
2015-Jul-26 19:32N 48°12' W 004°29'0 0.0
2015-Jul-26 18:32N 48°12' W 004°29'0 0.0
2015-Jul-26 17:32N 48°12' W 004°29'0 0.0
2015-Jul-26 16:32N 48°12' W 004°29'0 0.0
2015-Jul-26 15:32N 48°12' W 004°29'0 0.0
2015-Jul-26 14:32N 48°12' W 004°29'0 0.0
2015-Jul-26 13:32N 48°12' W 004°29'0 0.0
2015-Jul-26 12:32N 48°12' W 004°29'0 0.0
2015-Jul-26 11:32N 48°12' W 004°29'0 0.0
2015-Jul-26 10:29N 48°12' W 004°29'0 0.0
2015-Jul-26 09:32N 48°12' W 004°29'0 0.0
2015-Jul-26 08:08N 48°12' W 004°29'0 0.0
2015-Jul-26 07:32N 48°12' W 004°29'0 0.0
2015-Jul-26 06:29N 48°12' W 004°29'0 0.1
2015-Jul-26 05:32N 48°12' W 004°29'0 0.0
2015-Jul-26 04:32N 48°12' W 004°29'0 0.0
2015-Jul-26 03:32N 48°12' W 004°29'0 0.0
2015-Jul-26 02:32N 48°12' W 004°29'0 0.0
2015-Jul-26 01:32N 48°12' W 004°29'0 0.0
2015-Jul-26 00:32N 48°12' W 004°29'0 0.0
2015-Jul-25 23:29N 48°12' W 004°29'0 0.0
2015-Jul-25 22:32N 48°12' W 004°29'0 0.0
2015-Jul-25 21:29N 48°12' W 004°29'0 0.0
2015-Jul-25 20:32N 48°12' W 004°29'0 0.0
2015-Jul-25 19:26N 48°12' W 004°29'0 0.0
2015-Jul-25 18:26N 48°12' W 004°29'0 0.0
2015-Jul-25 17:29N 48°12' W 004°29'0 0.0
2015-Jul-25 16:32N 48°12' W 004°29'0 0.0
2015-Jul-25 15:32N 48°12' W 004°29'0 0.0
2015-Jul-25 14:32N 48°12' W 004°29'0 0.0
2015-Jul-25 13:32N 48°12' W 004°29'0 0.0
2015-Jul-25 12:32N 48°12' W 004°29'0 0.0
2015-Jul-25 11:32N 48°12' W 004°29'0 0.0
2015-Jul-25 10:32N 48°12' W 004°29'0 0.0
2015-Jul-25 09:32N 48°12' W 004°29'0 0.0
2015-Jul-25 08:32N 48°12' W 004°29'0 0.0
2015-Jul-25 07:32N 48°12' W 004°29'0 0.0
2015-Jul-25 06:32N 48°12' W 004°29'0 0.0
2015-Jul-25 05:32N 48°12' W 004°29'0 0.0
2015-Jul-25 04:32N 48°12' W 004°29'0 0.0
2015-Jul-25 03:32N 48°12' W 004°29'0 0.0
2015-Jul-25 02:32N 48°12' W 004°29'0 0.0
2015-Jul-25 01:32N 48°12' W 004°29'0 0.0
2015-Jul-25 00:32N 48°12' W 004°29'0 0.0
2015-Jul-24 23:32N 48°12' W 004°29'0 0.0
2015-Jul-24 22:32N 48°12' W 004°29'0 0.0
2015-Jul-24 21:32N 48°12' W 004°29'0 0.0
2015-Jul-24 20:32N 48°12' W 004°29'0 0.0
2015-Jul-24 19:32N 48°12' W 004°29'0 0.0
2015-Jul-24 18:34N 48°12' W 004°29'0 0.0
2015-Jul-24 17:33N 48°12' W 004°29'8 7.8
2015-Jul-24 16:33N 48°07' W 004°20'0 0.5
2015-Jul-24 15:32N 48°07' W 004°20'0 0.1
2015-Jul-24 14:32N 48°07' W 004°20'0 0.0
2015-Jul-24 13:32N 48°07' W 004°20'0 0.0
2015-Jul-24 12:32N 48°07' W 004°20'0 0.0
2015-Jul-24 11:29N 48°07' W 004°20'0 0.0
2015-Jul-24 10:32N 48°07' W 004°20'0 0.0
2015-Jul-24 09:11N 48°07' W 004°20'0 0.0
2015-Jul-24 08:26N 48°07' W 004°20'0 0.0
2015-Jul-24 07:29N 48°07' W 004°20'0 0.0
2015-Jul-24 06:26N 48°07' W 004°20'0 0.0
2015-Jul-24 05:20N 48°07' W 004°20'0 0.0
2015-Jul-24 04:14N 48°07' W 004°20'0 0.0
2015-Jul-24 03:26N 48°07' W 004°20'0 0.0
2015-Jul-24 02:29N 48°07' W 004°20'0 0.0
2015-Jul-24 00:14N 48°07' W 004°20'0 0.1
2015-Jul-23 23:29N 48°07' W 004°20'0 0.0
2015-Jul-23 22:32N 48°07' W 004°20'0 0.0
2015-Jul-23 21:32N 48°07' W 004°20'0 0.1
2015-Jul-23 20:32N 48°07' W 004°20'0 0.0
2015-Jul-23 19:32N 48°07' W 004°20'0 0.0
2015-Jul-23 18:32N 48°07' W 004°20'0 0.0
2015-Jul-23 17:05N 48°07' W 004°20'0 0.0
2015-Jul-23 16:32N 48°07' W 004°20'0 0.0
2015-Jul-23 15:32N 48°07' W 004°20'0 0.0
2015-Jul-23 14:32N 48°07' W 004°20'0 0.0
2015-Jul-23 13:32N 48°07' W 004°20'0 0.1
2015-Jul-23 12:32N 48°07' W 004°20'0 0.0
2015-Jul-23 11:32N 48°07' W 004°20'0 0.0
2015-Jul-23 10:11N 48°07' W 004°20'0 0.1
2015-Jul-23 09:32N 48°07' W 004°20'0 0.0
2015-Jul-23 08:32N 48°07' W 004°20'0 0.0
2015-Jul-23 07:23N 48°07' W 004°20'0 0.0
2015-Jul-23 06:17N 48°07' W 004°20'0 0.0
2015-Jul-23 05:32N 48°07' W 004°20'0 0.0
2015-Jul-23 04:32N 48°07' W 004°20'0 0.0
2015-Jul-23 03:32N 48°07' W 004°20'0 0.0
2015-Jul-23 02:32N 48°07' W 004°20'0 0.0
2015-Jul-23 01:32N 48°07' W 004°20'0 0.0
2015-Jul-23 00:32N 48°07' W 004°20'0 0.0
2015-Jul-22 23:29N 48°07' W 004°20'0 0.0
2015-Jul-22 22:32N 48°07' W 004°20'0 0.0
2015-Jul-22 21:32N 48°07' W 004°20'0 0.0
2015-Jul-22 20:32N 48°07' W 004°20'0 0.0
2015-Jul-22 19:32N 48°07' W 004°20'0 0.0
2015-Jul-22 18:32N 48°07' W 004°20'0 0.0
2015-Jul-22 17:32N 48°07' W 004°20'0 0.0
2015-Jul-22 16:32N 48°07' W 004°20'0 0.0
2015-Jul-22 15:32N 48°07' W 004°20'0 0.0
2015-Jul-22 14:32N 48°07' W 004°20'0 0.0
2015-Jul-22 13:32N 48°07' W 004°20'0 0.0
2015-Jul-22 12:32N 48°07' W 004°20'0 0.0
2015-Jul-22 11:32N 48°07' W 004°20'0 0.0
2015-Jul-22 10:32N 48°07' W 004°20'0 0.0
2015-Jul-22 09:29N 48°07' W 004°20'0 0.0
2015-Jul-22 08:29N 48°07' W 004°20'0 0.0
2015-Jul-22 07:29N 48°07' W 004°20'0 0.0
2015-Jul-22 06:29N 48°07' W 004°20'0 0.0
2015-Jul-22 05:29N 48°07' W 004°20'0 0.0
2015-Jul-22 04:32N 48°07' W 004°20'0 0.0
2015-Jul-22 03:32N 48°07' W 004°20'0 0.0
2015-Jul-22 02:32N 48°07' W 004°20'0 0.0
2015-Jul-22 01:33N 48°07' W 004°20'0 0.0
2015-Jul-22 00:33N 48°07' W 004°20'0 0.0
2015-Jul-21 23:33N 48°07' W 004°20'0 0.0
2015-Jul-21 22:33N 48°07' W 004°20'0 0.0
2015-Jul-21 21:33N 48°07' W 004°20'0 0.0
2015-Jul-21 20:33N 48°07' W 004°20'8 7.9
2015-Jul-21 19:32N 48°08' W 004°32'1010.2
2015-Jul-21 18:33N 48°12' W 004°45'6 5.7
2015-Jul-21 17:33N 48°18' W 004°44'9 9.3
2015-Jul-21 16:33N 48°21' W 004°31'3 2.8
2015-Jul-21 15:33N 48°23' W 004°28'0 0.0
2015-Jul-21 14:33N 48°23' W 004°28'0 0.0
2015-Jul-21 13:33N 48°23' W 004°28'0 0.0
2015-Jul-21 12:33N 48°23' W 004°28'0 0.0
2015-Jul-21 11:33N 48°23' W 004°28'0 0.0
2015-Jul-21 10:33N 48°23' W 004°28'0 0.0
2015-Jul-21 09:33N 48°23' W 004°28'0 0.0
2015-Jul-21 08:33N 48°23' W 004°28'0 0.0
2015-Jul-21 07:33N 48°23' W 004°28'0 0.0
2015-Jul-21 06:33N 48°23' W 004°28'0 0.0
2015-Jul-21 05:33N 48°23' W 004°28'0 0.0
2015-Jul-21 04:33N 48°23' W 004°28'0 0.0
2015-Jul-21 03:33N 48°23' W 004°28'0 0.0
2015-Jul-21 02:33N 48°23' W 004°28'0 0.0
2015-Jul-21 01:33N 48°23' W 004°28'0 0.0
2015-Jul-21 00:33N 48°23' W 004°28'0 0.0
2015-Jul-20 23:33N 48°23' W 004°28'0 0.0
2015-Jul-20 22:33N 48°23' W 004°28'0 0.0
2015-Jul-20 21:33N 48°23' W 004°28'0 0.0
2015-Jul-20 20:33N 48°23' W 004°28'0 0.0
2015-Jul-20 19:33N 48°23' W 004°28'0 0.0
2015-Jul-20 18:33N 48°23' W 004°28'0 0.0
2015-Jul-20 17:33N 48°23' W 004°28'0 0.2
2015-Jul-20 16:33N 48°23' W 004°28'7 7.2
2015-Jul-20 15:33N 48°19' W 004°38'9 8.8
2015-Jul-20 14:33N 48°17' W 004°50'4 3.7
2015-Jul-20 13:33N 48°16' W 004°56'6 6.0
2015-Jul-20 12:33N 48°14' W 005°05'121 7.1
2015-Jul-19 19:33N 49°51' W 003°13'8 8.1
2015-Jul-19 18:33N 49°57' W 003°04'11 9.1
2015-Jul-19 17:21N 50°02' W 002°49'3512.3
2015-Jul-19 14:30N 50°11' W 001°56'89 9.0
2015-Jul-19 04:33N 50°36' E 000°19'36 9.1
2015-Jul-19 00:32N 50°54' E 001°08'8 8.1
2015-Jul-18 23:33N 50°59' E 001°18'10 9.8
2015-Jul-18 22:33N 51°06' E 001°30'1211.9
2015-Jul-18 21:33N 51°13' E 001°44'1211.7
2015-Jul-18 20:33N 51°24' E 001°52'1010.2
2015-Jul-18 19:33N 51°32' E 002°02'10 9.6
2015-Jul-18 18:33N 51°39' E 002°12'9 9.0
2015-Jul-18 17:33N 51°46' E 002°22'8 8.3
2015-Jul-18 16:33N 51°52' E 002°31'8 7.9
2015-Jul-18 15:33N 51°58' E 002°40'8 7.9
2015-Jul-18 14:33N 52°04' E 002°48'29 9.5
2015-Jul-18 11:29N 52°04' E 003°36'910.3
2015-Jul-18 10:33N 52°03' E 003°51'10 9.6
2015-Jul-18 09:33N 51°59' E 004°05'10 9.6
2015-Jul-18 08:33N 51°53' E 004°18'1 0.8
2015-Jul-18 07:31N 51°53' E 004°16'0 0.0
2015-Jul-18 06:31N 51°53' E 004°16'0 0.0
2015-Jul-18 05:31N 51°53' E 004°16'0 0.0
2015-Jul-18 04:28N 51°53' E 004°16'0 0.0
2015-Jul-18 03:31N 51°53' E 004°16'0 0.0
2015-Jul-18 02:31N 51°53' E 004°16'0 0.0
2015-Jul-18 01:31N 51°53' E 004°16'0 0.0
2015-Jul-18 00:31N 51°53' E 004°16'0 0.0
2015-Jul-17 23:22N 51°53' E 004°16'0 0.0
2015-Jul-17 22:31N 51°53' E 004°16'0 0.0
2015-Jul-17 21:31N 51°53' E 004°16'0 0.0
2015-Jul-17 20:31N 51°53' E 004°16'0 0.0
2015-Jul-17 19:28N 51°53' E 004°16'  

Dump ship's entire track history